createdAt,value
2023-01-17T00:00:46.385Z,24.83
2023-01-17T00:06:07.036Z,22.35
2023-01-17T00:11:10.574Z,19.13
2023-01-17T00:16:15.436Z,20.67
2023-01-17T00:26:55.627Z,17.17
2023-01-17T00:31:59.190Z,21.37
2023-01-17T00:37:01.402Z,15.15
2023-01-17T00:42:03.720Z,21.40
2023-01-17T00:47:25.897Z,19.23
2023-01-17T00:52:46.464Z,15.13
2023-01-17T00:58:07.176Z,22.15
2023-01-17T01:03:30.629Z,16.73
2023-01-17T01:08:51.235Z,19.25
2023-01-17T01:14:13.604Z,19.45
2023-01-17T01:19:36.081Z,19.65
2023-01-17T01:24:56.795Z,19.00
2023-01-17T01:30:17.353Z,19.92
2023-01-17T01:35:22.534Z,16.52
2023-01-17T01:40:25.862Z,18.02
2023-01-17T01:45:31.609Z,19.65
2023-01-17T01:50:38.224Z,19.98
2023-01-17T01:55:45.478Z,18.10
2023-01-17T02:00:49.089Z,18.05
2023-01-17T02:05:54.083Z,14.65
2023-01-17T02:10:57.920Z,14.48
2023-01-17T02:16:06.990Z,19.50
2023-01-17T02:21:25.379Z,20.15
2023-01-17T02:26:57.008Z,16.48
2023-01-17T02:32:07.268Z,15.95
2023-01-17T02:37:16.085Z,19.40
2023-01-17T02:42:26.568Z,19.52
2023-01-17T02:47:33.248Z,21.20
2023-01-17T02:52:51.066Z,14.85
2023-01-17T02:58:07.145Z,19.73
2023-01-17T03:03:20.542Z,21.55
2023-01-17T03:08:24.998Z,22.73
2023-01-17T03:13:28.600Z,26.95
2023-01-17T03:18:33.496Z,24.83
2023-01-17T03:23:36.871Z,26.08
2023-01-17T03:28:40.290Z,24.65
2023-01-17T03:33:45.200Z,30.90
2023-01-17T03:38:48.694Z,30.67
2023-01-17T03:43:52.160Z,24.27
2023-01-17T03:48:56.959Z,27.50
2023-01-17T03:59:04.115Z,31.48
2023-01-17T04:04:09.143Z,29.60
2023-01-17T04:09:12.582Z,30.15
2023-01-17T04:14:16.057Z,21.27
2023-01-17T04:19:20.969Z,25.33
2023-01-17T04:24:24.532Z,29.23
2023-01-17T04:29:27.843Z,28.17
2023-01-17T04:34:32.617Z,26.65
2023-01-17T04:39:36.118Z,28.35
2023-01-17T04:44:39.432Z,31.17
2023-01-17T04:49:44.414Z,30.85
2023-01-17T04:54:49.556Z,27.10
2023-01-17T04:59:53.780Z,29.83
2023-01-17T05:04:58.819Z,28.08
2023-01-17T05:15:07.184Z,30.58
2023-01-17T05:20:13.578Z,29.65
2023-01-17T05:25:16.956Z,24.55
2023-01-17T05:30:21.153Z,27.70
2023-01-17T05:35:29.779Z,29.92
2023-01-17T05:40:34.641Z,30.27
2023-01-17T05:50:42.959Z,24.65
2023-01-17T06:00:50.269Z,29.42
2023-01-17T06:05:55.224Z,30.23
2023-01-17T06:16:04.395Z,29.40
2023-01-17T06:21:09.334Z,32.05
2023-01-17T06:31:15.900Z,27.38
2023-01-17T06:36:20.626Z,31.40
2023-01-17T06:41:25.989Z,33.75
2023-01-17T06:46:29.404Z,31.48
2023-01-17T06:51:34.307Z,32.03
2023-01-17T07:01:41.690Z,36.05
2023-01-17T07:06:46.512Z,36.33
2023-01-17T07:11:51.936Z,41.25
2023-01-17T07:16:55.719Z,43.20
2023-01-17T07:22:00.573Z,38.85
2023-01-17T07:32:09.068Z,37.80
2023-01-17T07:37:15.324Z,33.65
2023-01-17T07:42:18.841Z,39.85
2023-01-17T07:47:22.435Z,38.47
2023-01-17T07:52:27.353Z,32.75
2023-01-17T08:02:34.028Z,31.17
2023-01-17T08:07:38.922Z,32.60
2023-01-17T08:17:48.795Z,35.67
2023-01-17T08:22:56.836Z,31.42
2023-01-17T08:28:00.573Z,37.40
2023-01-17T08:33:04.147Z,33.72
2023-01-17T08:38:10.151Z,28.77
2023-01-17T08:43:13.604Z,31.33
2023-01-17T08:48:17.277Z,26.63
2023-01-17T08:53:23.511Z,40.28
2023-01-17T08:58:30.465Z,32.30
2023-01-17T09:03:35.291Z,31.30
2023-01-17T09:08:40.823Z,27.42
2023-01-17T09:13:44.728Z,34.03
2023-01-17T09:18:48.203Z,31.10
2023-01-17T09:23:53.212Z,31.38
2023-01-17T09:28:57.171Z,31.65
2023-01-17T09:34:01.101Z,33.27
2023-01-17T09:39:06.277Z,27.70
2023-01-17T09:44:24.847Z,34.58
2023-01-17T09:49:36.747Z,33.03
2023-01-17T09:54:43.995Z,27.58
2023-01-17T10:00:03.237Z,27.45
2023-01-17T10:05:30.019Z,29.45
2023-01-17T10:10:42.514Z,34.17
2023-01-17T10:16:00.899Z,40.05
2023-01-17T10:21:11.128Z,27.63
2023-01-17T10:26:19.964Z,29.17
2023-01-17T10:31:25.894Z,35.67
2023-01-17T10:36:34.732Z,37.90
2023-01-17T10:41:43.769Z,35.08
2023-01-17T10:46:54.281Z,34.05
2023-01-17T10:52:20.413Z,27.30
2023-01-17T10:57:28.392Z,37.00
2023-01-17T11:02:35.609Z,38.97
2023-01-17T11:07:40.162Z,29.85
2023-01-17T11:12:48.355Z,37.08
2023-01-17T11:17:54.348Z,26.02
2023-01-17T11:23:14.119Z,34.05
2023-01-17T11:28:26.111Z,35.67
2023-01-17T11:33:45.346Z,30.95
2023-01-17T11:39:00.239Z,33.20
2023-01-17T11:44:25.044Z,32.47
2023-01-17T11:49:30.883Z,38.50
2023-01-17T11:54:39.814Z,35.92
2023-01-17T11:59:47.943Z,44.17
2023-01-17T12:05:04.136Z,33.75
2023-01-17T12:10:14.764Z,33.53
2023-01-17T12:15:35.345Z,33.33
2023-01-17T12:20:47.169Z,34.42
2023-01-17T12:26:04.532Z,35.40
2023-01-17T12:31:21.844Z,31.70
2023-01-17T12:36:40.268Z,34.10
2023-01-17T12:41:57.570Z,35.65
2023-01-17T12:47:05.050Z,35.20
2023-01-17T12:52:15.172Z,26.90
2023-01-17T12:57:23.299Z,31.42
2023-01-17T13:02:36.564Z,32.00
2023-01-17T13:07:47.543Z,33.25
2023-01-17T13:12:52.201Z,33.80
2023-01-17T13:18:04.561Z,31.00
2023-01-17T13:23:14.008Z,30.65
2023-01-17T13:28:31.525Z,36.67
2023-01-17T13:33:56.627Z,37.03
2023-01-17T13:39:20.447Z,34.17
2023-01-17T13:44:30.161Z,30.53
2023-01-17T13:49:37.400Z,38.42
2023-01-17T13:54:49.185Z,28.85
2023-01-17T13:59:53.109Z,32.15
2023-01-17T14:05:15.335Z,28.90
2023-01-17T14:10:37.947Z,34.70
2023-01-17T14:15:51.011Z,30.67
2023-01-17T14:21:12.876Z,30.63
2023-01-17T14:26:42.679Z,28.60
2023-01-17T14:31:46.813Z,26.30
2023-01-17T14:36:51.581Z,30.17
2023-01-17T14:41:54.984Z,25.17
2023-01-17T14:46:58.365Z,28.80
2023-01-17T14:52:04.792Z,27.25
2023-01-17T14:57:27.016Z,25.80
2023-01-17T15:02:30.558Z,24.05
2023-01-17T15:07:38.197Z,29.30
2023-01-17T15:12:46.698Z,25.80
2023-01-17T15:17:53.811Z,26.33
2023-01-17T15:22:58.653Z,26.15
2023-01-17T15:28:04.741Z,24.23
2023-01-17T15:33:15.130Z,23.00
2023-01-17T15:38:19.963Z,25.50
2023-01-17T15:43:35.995Z,26.10
2023-01-17T15:48:43.526Z,23.17
2023-01-17T15:53:48.403Z,26.40
2023-01-17T16:03:55.721Z,26.58
2023-01-17T16:09:00.616Z,31.83
2023-01-17T16:14:07.635Z,27.98
2023-01-17T16:19:11.331Z,27.08
2023-01-17T16:24:16.840Z,24.80
2023-01-17T16:29:20.148Z,24.52
2023-01-17T16:34:24.090Z,29.02
2023-01-17T16:39:29.551Z,29.10
2023-01-17T16:44:33.611Z,20.50
2023-01-17T16:49:37.118Z,25.40
2023-01-17T16:54:41.987Z,25.52
2023-01-17T16:59:50.867Z,24.52
2023-01-17T17:04:54.568Z,24.70
2023-01-17T17:10:02.576Z,27.85
2023-01-17T17:15:07.956Z,30.85
2023-01-17T17:20:13.772Z,28.08
2023-01-17T17:25:19.421Z,27.27
2023-01-17T17:30:22.790Z,27.52
2023-01-17T17:35:26.289Z,32.83
2023-01-17T17:40:31.137Z,32.92
2023-01-17T17:45:34.456Z,32.13
2023-01-17T17:50:40.287Z,32.83
2023-01-17T17:55:45.153Z,33.08
2023-01-17T18:05:51.828Z,28.55
2023-01-17T18:11:03.585Z,32.08
2023-01-17T18:16:08.921Z,33.75
2023-01-17T18:21:14.271Z,33.75
2023-01-17T18:26:20.994Z,37.38
2023-01-17T18:31:27.700Z,41.78
2023-01-17T18:36:31.174Z,40.17
2023-01-17T18:41:36.130Z,38.55
2023-01-17T18:51:46.794Z,38.08
2023-01-17T18:56:52.773Z,36.80
2023-01-17T19:01:59.048Z,42.58
2023-01-17T19:07:02.577Z,41.22
2023-01-17T19:12:07.747Z,45.05
2023-01-17T19:17:11.048Z,44.03
2023-01-17T19:22:14.600Z,41.85
2023-01-17T19:27:19.509Z,43.30
2023-01-17T19:37:27.173Z,33.13
2023-01-17T19:42:32.025Z,39.97
2023-01-17T19:47:35.483Z,39.03
2023-01-17T19:52:42.413Z,42.00
2023-01-17T19:57:47.253Z,42.90
2023-01-17T20:07:53.791Z,45.38
2023-01-17T20:13:00.401Z,39.50
2023-01-17T20:18:04.103Z,42.10
2023-01-17T20:23:10.530Z,36.90
2023-01-17T20:28:15.247Z,37.13
2023-01-17T20:33:20.730Z,40.72
2023-01-17T20:38:27.545Z,40.42
2023-01-17T20:43:32.385Z,40.63
2023-01-17T20:48:35.786Z,40.13
2023-01-17T20:53:43.598Z,30.90
2023-01-17T20:58:49.584Z,27.70
2023-01-17T21:03:54.900Z,40.03
2023-01-17T21:08:59.930Z,34.30
2023-01-17T21:14:05.844Z,37.17
2023-01-17T21:19:15.865Z,37.60
2023-01-17T21:24:20.371Z,40.17
2023-01-17T21:29:29.607Z,37.35
2023-01-17T21:34:34.812Z,42.15
2023-01-17T21:39:38.800Z,41.65
2023-01-17T21:44:45.479Z,34.97
2023-01-17T21:49:48.822Z,38.63
2023-01-17T21:55:09.606Z,34.67
2023-01-17T22:00:16.121Z,39.03
2023-01-17T22:05:19.757Z,35.55
2023-01-17T22:10:23.337Z,30.95
2023-01-17T22:15:28.088Z,32.17
2023-01-17T22:20:34.196Z,31.88
2023-01-17T22:25:38.031Z,33.63
2023-01-17T22:30:42.905Z,18.95
2023-01-17T22:40:49.323Z,38.28
2023-01-17T22:46:00.263Z,36.38
2023-01-17T22:51:04.857Z,39.35
2023-01-17T22:56:10.184Z,38.22
2023-01-17T23:01:17.418Z,38.72
2023-01-17T23:06:23.033Z,27.65
2023-01-17T23:11:40.850Z,42.42
2023-01-17T23:17:04.755Z,32.97
2023-01-17T23:22:22.379Z,38.28
2023-01-17T23:27:45.307Z,35.95
2023-01-17T23:32:51.665Z,35.45
2023-01-17T23:38:12.308Z,32.42
2023-01-17T23:43:24.683Z,38.42
2023-01-17T23:48:29.947Z,39.13
2023-01-17T23:53:33.389Z,40.67
2023-01-17T23:58:36.824Z,41.05
